Time;durP1;ratioP1;P1;durP2;ratioP2;P2;SDS_P1;SDS_P2;PMS_P1;PMS_P2;Temp;Humidity;BMP_temperature;BMP_pressure;BME280_temperature;BME280_humidity;BME280_pressure;Samples;Min_cycle;Max_cycle;Signal;HPM_P1;HPM_P2
2023/05/06 00:00:04;;;;;;;7.78;4.70;;;;;;;11.39;100.00;99393.97;5075197;28;20055;-62
2023/05/06 00:02:40;;;;;;;8.82;4.22;;;;;;;11.37;100.00;99400.63;5067220;28;20401;-62
2023/05/06 00:05:08;;;;;;;5.75;4.03;;;;;;;11.42;100.00;99398.84;5074032;28;20040;-62
2023/05/06 00:07:35;;;;;;;7.55;3.85;;;;;;;11.45;100.00;99398.34;5074878;28;20053;-62
2023/05/06 00:10:03;;;;;;;8.38;4.10;;;;;;;11.45;100.00;99397.53;5074254;28;20139;-62
2023/05/06 00:12:30;;;;;;;7.35;4.82;;;;;;;11.51;100.00;99393.09;5074249;28;20489;-62
2023/05/06 00:14:57;;;;;;;12.35;5.35;;;;;;;11.42;100.00;99389.97;5063598;28;20098;-63
2023/05/06 00:17:24;;;;;;;7.70;4.63;;;;;;;11.41;100.00;99394.53;5074282;28;20067;-63
2023/05/06 00:19:52;;;;;;;8.68;4.50;;;;;;;11.27;100.00;99395.91;5077649;28;20070;-62
2023/05/06 00:22:19;;;;;;;6.25;4.63;;;;;;;11.23;100.00;99395.59;5075139;28;20063;-62
2023/05/06 00:24:46;;;;;;;9.63;4.20;;;;;;;11.10;100.00;99392.41;5076755;28;20056;-62
2023/05/06 00:27:13;;;;;;;4.85;3.00;;;;;;;11.02;100.00;99397.09;5069675;28;20400;-62
2023/05/06 00:29:41;;;;;;;5.82;2.67;;;;;;;10.94;100.00;99397.50;5085298;28;20045;-62
2023/05/06 00:32:08;;;;;;;6.93;2.75;;;;;;;10.95;100.00;99395.63;5075725;28;20097;-62
2023/05/06 00:34:35;;;;;;;4.95;2.60;;;;;;;10.99;100.00;99388.72;5072483;28;20051;-61
2023/05/06 00:37:04;;;;;;;5.82;2.58;;;;;;;10.91;100.00;99383.75;5078699;28;20079;-62
2023/05/06 00:39:31;;;;;;;5.50;2.70;;;;;;;10.92;100.00;99390.75;5073659;28;20513;-62
2023/05/06 00:42:00;;;;;;;15.38;3.88;;;;;;;11.04;100.00;99379.97;5073711;28;20068;-62
2023/05/06 00:44:27;;;;;;;3.83;1.95;;;;;;;10.95;100.00;99385.69;5074636;28;20491;-62
2023/05/06 00:46:55;;;;;;;2.60;1.90;;;;;;;10.99;100.00;99376.13;5078236;28;20387;-62
2023/05/06 00:49:22;;;;;;;6.30;2.08;;;;;;;10.90;100.00;99372.19;5068763;28;20040;-62
2023/05/06 00:51:49;;;;;;;8.50;2.25;;;;;;;10.99;100.00;99378.00;5077716;28;20052;-62
2023/05/06 00:54:17;;;;;;;3.70;2.05;;;;;;;10.96;100.00;99373.13;5074645;28;20070;-63
2023/05/06 00:56:44;;;;;;;5.63;2.20;;;;;;;10.87;100.00;99374.56;5090770;28;20124;-63
2023/05/06 00:59:11;;;;;;;3.75;2.22;;;;;;;10.79;100.00;99381.13;5075471;28;20644;-63
2023/05/06 01:01:39;;;;;;;3.78;2.10;;;;;;;10.80;100.00;99374.69;5075535;28;20101;-61
2023/05/06 01:04:07;;;;;;;6.00;2.95;;;;;;;10.78;100.00;99369.59;5068130;28;20048;-63
2023/05/06 01:06:37;;;;;;;6.50;2.90;;;;;;;10.83;100.00;99368.03;5076341;28;20746;-62
2023/05/06 01:09:07;;;;;;;3.97;2.50;;;;;;;10.80;100.00;99369.34;5070531;28;20079;-62
2023/05/06 01:11:38;;;;;;;5.18;2.50;;;;;;;10.80;100.00;99366.66;5074829;28;20380;-63
2023/05/06 01:14:08;;;;;;;4.20;2.28;;;;;;;10.88;100.00;99363.56;5074033;28;20044;-64
2023/05/06 01:16:35;;;;;;;5.85;2.65;;;;;;;10.77;100.00;99361.78;5074971;28;20106;-64
2023/05/06 01:19:02;;;;;;;4.50;2.70;;;;;;;10.61;100.00;99354.50;5072196;28;20383;-63
2023/05/06 01:21:33;;;;;;;6.10;2.40;;;;;;;10.42;100.00;99352.00;5072112;28;20407;-63
2023/05/06 01:24:01;;;;;;;5.35;2.83;;;;;;;10.25;100.00;99345.75;5069076;28;20056;-63
2023/05/06 01:26:28;;;;;;;5.68;2.88;;;;;;;10.20;100.00;99353.69;5065865;28;20064;-63
2023/05/06 01:28:56;;;;;;;5.63;2.90;;;;;;;10.19;100.00;99346.69;5072848;28;20051;-64
2023/05/06 01:31:25;;;;;;;3.72;2.63;;;;;;;10.24;100.00;99349.47;5066269;28;20084;-64
2023/05/06 01:33:59;;;;;;;6.53;3.25;;;;;;;10.19;100.00;99354.75;5074984;28;20076;-64
2023/05/06 01:36:35;;;;;;;4.32;3.10;;;;;;;10.09;100.00;99353.47;5075280;28;20135;-63
2023/05/06 01:39:12;;;;;;;4.63;3.00;;;;;;;10.09;100.00;99350.78;5070255;28;20413;-64
2023/05/06 01:41:40;;;;;;;5.47;3.17;;;;;;;10.12;100.00;99347.63;5072676;28;20581;-63
2023/05/06 01:44:10;;;;;;;4.47;2.80;;;;;;;10.03;100.00;99353.59;5074003;28;20059;-64
2023/05/06 01:46:37;;;;;;;6.05;3.20;;;;;;;10.04;100.00;99356.03;5067884;28;20167;-63
2023/05/06 01:49:05;;;;;;;4.97;3.10;;;;;;;10.19;100.00;99362.78;5069654;28;20127;-63
2023/05/06 01:51:32;;;;;;;6.43;2.65;;;;;;;10.14;100.00;99355.44;5077373;28;20502;-63
2023/05/06 01:53:59;;;;;;;5.43;2.97;;;;;;;10.10;100.00;99363.13;5073395;28;20412;-63
2023/05/06 01:56:29;;;;;;;4.40;2.95;;;;;;;10.05;100.00;99357.66;5068765;28;20383;-63
2023/05/06 01:58:56;;;;;;;3.90;2.78;;;;;;;10.09;100.00;99364.19;5078716;28;20056;-64
2023/05/06 02:01:23;;;;;;;4.97;3.03;;;;;;;9.94;100.00;99366.53;5069185;28;20133;-63
2023/05/06 02:03:50;;;;;;;3.67;2.50;;;;;;;9.88;100.00;99370.13;5073752;28;20045;-64
2023/05/06 02:06:18;;;;;;;4.25;2.55;;;;;;;9.85;100.00;99368.75;5077463;28;20037;-64
2023/05/06 02:08:45;;;;;;;5.63;2.47;;;;;;;9.81;100.00;99364.91;5071246;28;20118;-63
2023/05/06 02:11:17;;;;;;;6.03;2.78;;;;;;;9.73;100.00;99365.25;5072638;28;20048;-63
2023/05/06 02:13:46;;;;;;;6.50;2.80;;;;;;;9.88;100.00;99370.13;5089233;28;20348;-63
2023/05/06 02:16:13;;;;;;;5.70;2.85;;;;;;;9.79;100.00;99371.56;5073635;28;20729;-63
2023/05/06 02:18:41;;;;;;;7.35;3.42;;;;;;;9.63;100.00;99378.41;5079716;28;20128;-63
2023/05/06 02:21:09;;;;;;;3.92;2.50;;;;;;;9.39;100.00;99375.72;5083278;28;20040;-67
2023/05/06 02:23:36;;;;;;;4.22;2.40;;;;;;;9.40;100.00;99381.88;5069634;28;20055;-63
2023/05/06 02:26:04;;;;;;;4.05;2.50;;;;;;;9.20;100.00;99383.00;5072331;28;20132;-61
2023/05/06 02:28:30;;;;;;;3.72;2.30;;;;;;;9.09;100.00;99381.13;5068147;28;20502;-64
2023/05/06 02:30:59;;;;;;;7.53;3.10;;;;;;;8.99;100.00;99378.22;5075040;28;20137;-64
2023/05/06 02:33:26;;;;;;;3.53;2.35;;;;;;;9.11;100.00;99378.22;5075493;28;20080;-63
2023/05/06 02:35:53;;;;;;;3.85;2.08;;;;;;;9.17;100.00;99372.78;5080757;28;20051;-63
2023/05/06 02:38:21;;;;;;;5.70;2.63;;;;;;;9.27;100.00;99383.72;5070679;28;20079;-63
2023/05/06 02:40:49;;;;;;;6.72;2.33;;;;;;;9.32;100.00;99372.34;5080924;28;20632;-63
2023/05/06 02:43:16;;;;;;;4.00;2.40;;;;;;;9.34;100.00;99367.59;5068092;28;20049;-63
2023/05/06 02:46:03;;;;;;;4.43;2.20;;;;;;;9.39;100.00;99364.22;5075482;28;20053;-63
2023/05/06 02:48:48;;;;;;;3.28;2.20;;;;;;;9.38;100.00;99362.56;5068806;28;20060;-63
2023/05/06 02:51:15;;;;;;;5.10;2.60;;;;;;;9.44;100.00;99362.47;5073916;28;20044;-61
2023/05/06 02:53:42;;;;;;;4.40;2.25;;;;;;;9.45;100.00;99363.28;5057594;28;20101;-62
2023/05/06 02:56:09;;;;;;;3.78;2.10;;;;;;;9.40;100.00;99363.16;5077557;28;20905;-62
2023/05/06 02:58:36;;;;;;;3.03;2.10;;;;;;;9.40;100.00;99357.81;5070950;28;20045;-62
2023/05/06 03:01:05;;;;;;;4.03;2.33;;;;;;;9.32;100.00;99358.16;5073932;28;20502;-62
2023/05/06 03:03:33;;;;;;;4.78;2.28;;;;;;;9.40;100.00;99358.63;5059197;28;20150;-64
2023/05/06 03:06:00;;;;;;;4.47;2.40;;;;;;;9.38;100.00;99365.25;5074505;28;20085;-63
2023/05/06 03:08:27;;;;;;;4.05;2.15;;;;;;;9.33;100.00;99357.09;5073726;28;20055;-64
2023/05/06 03:10:55;;;;;;;3.58;2.20;;;;;;;9.17;100.00;99367.44;5069590;28;20131;-61
2023/05/06 03:13:23;;;;;;;5.75;2.50;;;;;;;9.18;100.00;99368.25;5047471;28;20143;-62
2023/05/06 03:15:52;;;;;;;4.43;2.40;;;;;;;9.11;100.00;99362.19;5078494;28;20044;-62
2023/05/06 03:18:21;;;;;;;6.53;2.37;;;;;;;9.10;100.00;99356.03;5070950;28;20055;-64
2023/05/06 03:20:50;;;;;;;5.95;2.17;;;;;;;9.02;100.00;99364.38;5070103;28;20358;-64
2023/05/06 03:23:18;;;;;;;4.53;2.45;;;;;;;9.05;100.00;99361.25;5075682;28;20043;-63
2023/05/06 03:25:45;;;;;;;3.50;2.28;;;;;;;9.13;100.00;99368.91;5065872;28;20036;-63
2023/05/06 03:28:13;;;;;;;3.47;2.30;;;;;;;9.04;100.00;99368.47;5070027;28;20390;-63
2023/05/06 03:30:42;;;;;;;4.07;2.40;;;;;;;8.96;100.00;99365.28;5073155;28;20139;-63
2023/05/06 03:33:09;;;;;;;3.55;2.33;;;;;;;8.98;100.00;99368.53;5075351;28;20528;-63
2023/05/06 03:35:38;;;;;;;6.47;2.42;;;;;;;8.89;100.00;99370.75;5073556;28;20036;-63
2023/05/06 03:38:05;;;;;;;5.53;2.45;;;;;;;8.85;100.00;99358.88;5067095;28;20117;-63
2023/05/06 03:40:43;;;;;;;3.05;2.13;;;;;;;8.83;100.00;99367.09;5070981;28;20135;-63
2023/05/06 03:43:10;;;;;;;4.60;2.30;;;;;;;8.84;100.00;99365.25;5067626;28;20410;-63
2023/05/06 03:45:38;;;;;;;5.30;2.47;;;;;;;8.92;100.00;99362.25;5062406;28;20586;-63
2023/05/06 03:48:06;;;;;;;3.60;2.33;;;;;;;8.85;100.00;99369.56;5100600;27;20036;-63
2023/05/06 03:50:35;;;;;;;4.63;2.30;;;;;;;8.84;100.00;99370.59;5071875;28;20139;-62
2023/05/06 03:53:04;;;;;;;5.43;2.50;;;;;;;8.98;100.00;99368.53;5064306;28;20490;-63
2023/05/06 03:55:33;;;;;;;4.28;2.30;;;;;;;8.88;100.00;99368.28;5071219;28;20051;-63
2023/05/06 03:58:01;;;;;;;5.25;2.40;;;;;;;8.83;100.00;99372.44;5080551;28;20047;-63
2023/05/06 04:00:28;;;;;;;7.20;2.40;;;;;;;8.76;100.00;99363.72;5072837;28;20043;-63
2023/05/06 04:02:55;;;;;;;5.32;2.70;;;;;;;8.81;100.00;99368.38;5077220;28;20041;-63
2023/05/06 04:05:29;;;;;;;6.38;2.55;;;;;;;8.87;100.00;99367.47;5067629;28;20598;-63
2023/05/06 04:07:57;;;;;;;4.75;2.67;;;;;;;8.97;100.00;99366.94;5072785;28;20478;-62
2023/05/06 04:10:26;;;;;;;3.83;2.50;;;;;;;9.54;100.00;99380.63;5075325;28;20040;-63
2023/05/06 04:12:56;;;;;;;2.85;2.05;;;;;;;9.74;100.00;99376.81;5054561;28;20048;-63
2023/05/06 04:15:31;;;;;;;5.50;2.30;;;;;;;9.43;100.00;99384.09;5073485;28;20037;-63
2023/05/06 04:17:59;;;;;;;;;;;;;;;9.20;100.00;99388.34;5072893;28;20048;-63
2023/05/06 04:20:26;;;;;;;7.88;2.42;;;;;;;9.14;100.00;99383.94;5070106;28;19928;-63
2023/05/06 04:22:53;;;;;;;4.22;2.30;;;;;;;9.13;100.00;99382.28;5089521;28;20060;-63
2023/05/06 04:25:21;;;;;;;4.32;2.40;;;;;;;9.16;100.00;99375.66;5073197;28;20040;-63
2023/05/06 04:27:50;;;;;;;3.72;2.38;;;;;;;10.13;100.00;99380.56;5074927;28;20040;-63
2023/05/06 04:30:19;;;;;;;5.07;2.40;;;;;;;12.88;90.10;99385.19;5066599;28;20077;-62
2023/05/06 04:32:46;;;;;;;6.18;2.42;;;;;;;13.97;82.23;99389.34;5077642;28;20245;-63
2023/05/06 04:35:15;;;;;;;3.10;2.05;;;;;;;14.70;75.00;99396.69;5066787;28;20387;-62
2023/05/06 04:37:43;;;;;;;5.95;2.10;;;;;;;15.17;75.26;99401.09;5069898;28;20033;-63
2023/05/06 04:40:17;;;;;;;3.70;2.10;;;;;;;13.04;81.63;99392.38;5065824;28;20045;-63
2023/05/06 04:42:46;;;;;;;3.45;1.90;;;;;;;12.06;89.87;99397.69;5071842;28;20049;-63
2023/05/06 04:45:19;;;;;;;3.97;2.08;;;;;;;12.25;89.39;99403.56;5077847;28;20078;-62
2023/05/06 04:47:49;;;;;;;3.90;2.20;;;;;;;13.47;82.72;99406.75;5091840;28;20052;-62
2023/05/06 04:50:18;;;;;;;2.83;2.03;;;;;;;13.51;83.30;99399.81;5067234;28;20036;-62
2023/05/06 04:52:45;;;;;;;2.97;1.98;;;;;;;15.19;73.80;99404.34;5066678;28;20053;-62
2023/05/06 04:55:14;;;;;;;4.20;2.00;;;;;;;14.70;76.34;99407.47;5076084;28;20521;-62
2023/05/06 04:57:47;;;;;;;4.75;2.42;;;;;;;16.42;69.26;99406.09;5069385;28;20052;-62
2023/05/06 05:00:15;;;;;;;3.85;1.63;;;;;;;17.42;64.82;99405.84;5066860;28;20135;-62
2023/05/06 05:02:43;;;;;;;2.63;1.80;;;;;;;19.01;58.73;99416.88;5071364;28;20052;-63
2023/05/06 05:05:11;;;;;;;2.70;1.90;;;;;;;18.71;57.75;99414.25;5075986;28;20045;-63
2023/05/06 05:07:40;;;;;;;6.88;1.90;;;;;;;20.59;53.33;99416.09;5073699;28;20398;-63
2023/05/06 05:10:09;;;;;;;2.35;1.70;;;;;;;19.09;57.07;99417.03;5073063;28;20070;-63
2023/05/06 05:12:37;;;;;;;;;;;;;;;20.04;54.71;99425.84;5061202;28;20079;-63
2023/05/06 05:15:05;;;;;;;4.57;1.80;;;;;;;19.44;55.64;99425.72;5076560;28;19919;-63
2023/05/06 05:17:32;;;;;;;2.92;1.58;;;;;;;16.00;68.94;99421.66;5064458;28;20044;-63
2023/05/06 05:20:02;;;;;;;4.55;1.95;;;;;;;15.27;70.78;99433.50;5069897;28;20060;-63
2023/05/06 05:22:30;;;;;;;2.75;1.70;;;;;;;15.81;74.23;99436.81;5070992;28;20041;-63
2023/05/06 05:24:57;;;;;;;2.58;1.63;;;;;;;18.48;62.93;99428.69;5091886;28;20053;-63
2023/05/06 05:27:24;;;;;;;3.03;1.92;;;;;;;17.15;64.62;99427.97;5065892;28;20068;-62
2023/05/06 05:29:53;;;;;;;3.60;1.70;;;;;;;18.53;59.81;99425.91;5076002;28;20074;-62
2023/05/06 05:32:21;;;;;;;2.42;1.75;;;;;;;17.06;65.19;99435.06;5072426;28;20045;-62
2023/05/06 05:34:48;;;;;;;2.35;1.50;;;;;;;16.04;71.67;99435.44;5069510;28;20129;-62
2023/05/06 05:37:16;;;;;;;5.22;2.00;;;;;;;17.16;66.71;99434.19;5068894;28;20060;-62
2023/05/06 05:39:44;;;;;;;5.78;1.83;;;;;;;18.51;61.88;99431.59;5085473;28;20041;-62
2023/05/06 05:42:12;;;;;;;3.15;1.80;;;;;;;18.21;60.81;99427.34;5070357;28;20042;-62
2023/05/06 05:44:42;;;;;;;2.13;1.70;;;;;;;17.53;65.86;99435.56;5066034;28;20482;-62
2023/05/06 05:47:09;;;;;;;3.53;1.85;;;;;;;18.92;60.69;99431.13;5069475;28;20062;-62
2023/05/06 05:49:36;;;;;;;3.22;1.70;;;;;;;17.62;66.09;99440.09;5073457;28;20072;-62
2023/05/06 05:52:04;;;;;;;3.33;1.75;;;;;;;19.47;57.58;99440.63;5075533;28;21701;-62
2023/05/06 05:54:33;;;;;;;2.67;1.77;;;;;;;20.98;53.12;99441.97;5072292;28;20456;-61
2023/05/06 05:57:01;;;;;;;3.38;1.70;;;;;;;20.47;54.01;99441.09;5066868;28;20057;-62
2023/05/06 05:59:30;;;;;;;2.60;1.60;;;;;;;20.66;53.05;99438.25;5076610;28;20108;-61
2023/05/06 06:02:01;;;;;;;3.40;1.73;;;;;;;21.59;49.53;99442.47;5061232;28;20044;-62
2023/05/06 06:04:29;;;;;;;2.65;1.73;;;;;;;21.52;51.25;99451.91;5066202;28;20036;-61
2023/05/06 06:06:57;;;;;;;6.72;1.90;;;;;;;19.55;56.26;99453.59;5059136;28;20164;-62
2023/05/06 06:09:25;;;;;;;2.45;1.70;;;;;;;20.89;53.10;99448.13;5080501;28;20067;-62
2023/05/06 06:11:54;;;;;;;3.05;1.60;;;;;;;22.36;49.58;99446.78;5075503;28;20059;-61
2023/05/06 06:14:21;;;;;;;5.03;1.70;;;;;;;23.43;46.72;99435.41;5072983;28;20505;-61
2023/05/06 06:16:49;;;;;;;3.90;1.70;;;;;;;22.82;47.51;99442.75;5061486;28;20143;-62
2023/05/06 06:19:18;;;;;;;1.92;1.40;;;;;;;22.17;48.95;99441.53;5060659;28;20064;-63
2023/05/06 06:21:46;;;;;;;3.83;1.63;;;;;;;21.73;49.99;99446.75;5061116;28;20131;-63
2023/05/06 06:24:13;;;;;;;2.88;1.77;;;;;;;21.52;51.03;99442.94;5071505;28;20033;-62
2023/05/06 06:26:40;;;;;;;2.25;1.70;;;;;;;18.91;57.74;99440.38;5082557;28;20094;-62
2023/05/06 06:29:09;;;;;;;3.40;1.90;;;;;;;18.62;60.74;99443.16;5077086;28;20043;-62
2023/05/06 06:31:36;;;;;;;4.33;1.60;;;;;;;18.95;61.42;99440.59;5075218;28;20044;-62
2023/05/06 06:34:05;;;;;;;5.55;1.90;;;;;;;18.73;61.59;99441.94;5075842;28;20044;-62
2023/05/06 06:36:32;;;;;;;2.38;1.60;;;;;;;19.62;59.25;99443.13;5090792;28;20048;-62
2023/05/06 06:38:59;;;;;;;6.53;2.00;;;;;;;18.19;65.88;99443.09;5075694;28;20532;-62
2023/05/06 06:41:26;;;;;;;3.30;1.80;;;;;;;17.08;70.09;99442.91;5072256;28;20399;-62
2023/05/06 06:43:53;;;;;;;4.30;1.83;;;;;;;16.27;74.10;99452.94;5075097;28;20141;-62
2023/05/06 06:46:25;;;;;;;3.10;1.90;;;;;;;15.81;75.85;99453.84;5074242;28;20048;-62
2023/05/06 06:48:52;;;;;;;3.63;1.92;;;;;;;17.38;70.52;99456.25;5075895;28;20121;-62
2023/05/06 06:51:19;;;;;;;4.00;1.90;;;;;;;17.96;64.17;99441.16;5073157;28;20164;-62
2023/05/06 06:53:47;;;;;;;5.22;2.15;;;;;;;17.99;66.59;99435.97;5077559;28;20052;-62
2023/05/06 06:56:14;;;;;;;3.10;1.85;;;;;;;19.85;58.01;99440.63;5071374;28;20075;-62
2023/05/06 06:58:41;;;;;;;3.13;1.70;;;;;;;22.11;51.39;99440.06;5072787;28;20040;-62
2023/05/06 07:01:09;;;;;;;3.40;1.60;;;;;;;18.94;58.51;99445.19;5071222;28;20057;-62
2023/05/06 07:03:37;;;;;;;3.00;1.70;;;;;;;20.60;56.03;99445.75;5075195;28;20101;-62
2023/05/06 07:06:04;;;;;;;4.07;1.80;;;;;;;24.02;47.78;99453.22;5073592;28;20044;-62
2023/05/06 07:08:31;;;;;;;4.13;1.70;;;;;;;24.98;44.90;99445.34;5068396;28;20048;-63
2023/05/06 07:10:58;;;;;;;3.60;1.60;;;;;;;22.95;47.42;99450.00;5070421;28;20811;-62
2023/05/06 07:13:26;;;;;;;3.55;1.65;;;;;;;20.09;53.96;99454.84;5071775;28;20129;-62
2023/05/06 07:15:53;;;;;;;5.80;1.70;;;;;;;23.48;47.88;99448.91;5069032;28;20040;-62
2023/05/06 07:18:20;;;;;;;3.85;1.60;;;;;;;21.85;51.47;99457.09;5070470;28;20062;-62
2023/05/06 07:20:48;;;;;;;3.10;1.65;;;;;;;24.37;46.88;99453.09;5076015;28;20048;-63
2023/05/06 07:23:15;;;;;;;3.85;1.67;;;;;;;21.48;51.57;99458.28;5072410;28;20391;-61
2023/05/06 07:25:43;;;;;;;3.65;1.80;;;;;;;24.62;46.25;99451.38;5076906;28;20433;-62
2023/05/06 07:28:10;;;;;;;3.75;1.50;;;;;;;24.25;45.96;99457.31;5053813;28;20049;-63
2023/05/06 07:30:38;;;;;;;4.30;1.48;;;;;;;25.15;45.21;99456.19;5069426;28;20469;-62
2023/05/06 07:33:05;;;;;;;3.40;1.67;;;;;;;23.21;48.14;99452.78;5069939;28;20126;-63
2023/05/06 07:35:32;;;;;;;3.78;1.48;;;;;;;25.26;44.32;99466.78;5081168;28;20402;-62
2023/05/06 07:38:00;;;;;;;3.22;1.65;;;;;;;22.19;51.08;99458.41;5068132;28;20040;-62
2023/05/06 07:40:28;;;;;;;1.50;1.38;;;;;;;22.76;48.99;99457.66;5069826;28;20041;-61
2023/05/06 07:42:55;;;;;;;2.83;1.50;;;;;;;24.20;47.26;99471.19;5082865;28;20119;-62
2023/05/06 07:45:24;;;;;;;3.53;1.27;;;;;;;24.78;45.52;99468.03;5077131;28;20041;-63
2023/05/06 07:47:51;;;;;;;3.95;1.60;;;;;;;22.70;48.50;99470.69;5077937;28;20109;-62
2023/05/06 07:50:17;;;;;;;3.88;1.60;;;;;;;20.57;56.92;99470.06;5071540;28;20094;-64
2023/05/06 07:52:44;;;;;;;3.08;1.52;;;;;;;19.89;59.46;99479.69;5079213;28;20080;-63
2023/05/06 07:55:13;;;;;;;3.08;1.60;;;;;;;18.82;62.95;99472.00;5071458;28;20130;-63
2023/05/06 07:57:40;;;;;;;4.68;1.60;;;;;;;23.08;51.19;99470.13;5072592;28;20063;-63
2023/05/06 08:00:08;;;;;;;2.90;1.60;;;;;;;22.24;52.53;99468.41;5074053;28;20393;-62
2023/05/06 08:02:47;;;;;;;2.67;1.50;;;;;;;23.95;48.19;99474.81;5073554;28;20414;-62
2023/05/06 08:05:14;;;;;;;3.42;1.60;;;;;;;22.58;48.56;99479.47;5074367;28;20040;-62
2023/05/06 08:07:41;;;;;;;2.25;1.45;;;;;;;19.64;58.16;99470.00;5070120;28;20056;-61
2023/05/06 08:10:09;;;;;;;3.78;1.65;;;;;;;20.96;55.50;99479.59;5075884;28;20127;-61
2023/05/06 08:12:37;;;;;;;2.83;1.48;;;;;;;19.52;57.98;99474.00;5074984;28;20040;-62
2023/05/06 08:15:05;;;;;;;2.42;1.40;;;;;;;20.33;55.58;99468.28;5076905;28;20135;-62
2023/05/06 08:17:32;;;;;;;1.98;1.30;;;;;;;21.71;51.68;99467.28;5065884;28;20579;-63
2023/05/06 08:20:00;;;;;;;1.98;1.30;;;;;;;21.54;51.89;99468.78;5073718;28;20413;-62
2023/05/06 08:22:27;;;;;;;2.38;1.20;;;;;;;20.11;56.01;99476.31;5068987;28;20430;-62
2023/05/06 08:24:55;;;;;;;2.25;1.20;;;;;;;20.27;54.25;99474.94;5072373;28;20494;-62
2023/05/06 08:27:22;;;;;;;5.45;1.50;;;;;;;20.64;54.79;99467.72;5069317;28;20127;-63
2023/05/06 08:29:50;;;;;;;1.08;0.93;;;;;;;20.03;55.80;99480.53;5072720;28;20125;-62
2023/05/06 08:32:17;;;;;;;1.70;1.20;;;;;;;19.33;56.71;99475.94;5074931;28;20498;-62
2023/05/06 08:34:44;;;;;;;3.70;1.23;;;;;;;20.21;56.59;99481.56;5072857;28;20068;-62
2023/05/06 08:37:11;;;;;;;2.90;1.30;;;;;;;21.00;54.51;99480.59;5071498;28;20043;-63
2023/05/06 08:39:38;;;;;;;1.05;0.93;;;;;;;20.45;52.38;99475.97;5071595;28;20083;-63
2023/05/06 08:42:06;;;;;;;2.85;1.10;;;;;;;18.52;57.60;99467.69;5069933;28;20064;-63
2023/05/06 08:44:33;;;;;;;0.90;0.90;;;;;;;20.41;53.31;99470.31;5069644;28;20062;-62
2023/05/06 08:47:01;;;;;;;1.15;0.80;;;;;;;20.59;52.53;99457.75;5073184;28;20067;-62
2023/05/06 08:49:29;;;;;;;3.00;1.20;;;;;;;20.85;53.34;99462.66;5071899;28;20040;-62
2023/05/06 08:51:56;;;;;;;1.17;1.10;;;;;;;19.59;58.24;99455.41;5075046;28;20036;-63
2023/05/06 08:54:24;;;;;;;1.42;1.10;;;;;;;19.80;56.58;99455.91;5074117;28;20048;-62
2023/05/06 08:56:53;;;;;;;2.50;1.48;;;;;;;19.67;53.16;99461.25;5071962;28;20133;-62
2023/05/06 08:59:21;;;;;;;1.42;1.10;;;;;;;18.64;57.70;99448.28;5073682;28;20089;-62
2023/05/06 09:01:49;;;;;;;2.63;1.25;;;;;;;18.91;57.06;99455.84;5069396;28;20045;-62
2023/05/06 09:04:17;;;;;;;2.03;1.10;;;;;;;19.80;55.26;99449.66;5073219;28;20044;-63
2023/05/06 09:06:45;;;;;;;2.78;1.40;;;;;;;20.95;52.96;99450.75;5075925;28;20131;-62
2023/05/06 09:09:13;;;;;;;1.88;1.00;;;;;;;21.24;52.88;99445.72;5072734;28;20475;-62
2023/05/06 09:11:40;;;;;;;2.28;1.05;;;;;;;21.96;49.84;99455.69;5070375;28;20072;-62
2023/05/06 09:14:09;;;;;;;1.45;1.00;;;;;;;21.78;51.18;99447.75;5069823;28;20036;-63
2023/05/06 09:16:36;;;;;;;1.88;1.00;;;;;;;22.96;47.19;99445.31;5076263;28;20075;-63
2023/05/06 09:19:04;;;;;;;2.72;1.17;;;;;;;22.90;46.72;99450.16;5067811;28;20032;-63
2023/05/06 09:21:35;;;;;;;1.58;0.90;;;;;;;21.67;46.74;99450.72;5076380;28;20048;-63
2023/05/06 09:24:02;;;;;;;1.13;0.90;;;;;;;23.20;46.35;99444.91;5074195;28;20048;-63
2023/05/06 09:26:29;;;;;;;3.15;1.38;;;;;;;23.16;46.92;99449.41;5058855;28;20040;-63
2023/05/06 09:28:57;;;;;;;1.85;0.90;;;;;;;22.72;46.97;99435.66;5063351;28;20048;-63
2023/05/06 09:31:24;;;;;;;3.25;1.20;;;;;;;24.26;44.16;99442.50;5068057;28;20402;-63
2023/05/06 09:33:51;;;;;;;3.00;1.40;;;;;;;22.58;47.49;99441.22;5059636;28;20041;-61
2023/05/06 09:36:18;;;;;;;1.70;1.30;;;;;;;22.07;49.29;99441.81;5062987;28;20099;-62
2023/05/06 09:38:46;;;;;;;1.10;0.82;;;;;;;22.95;46.93;99433.59;5062785;28;20202;-64
2023/05/06 09:41:13;;;;;;;2.85;1.20;;;;;;;21.16;50.43;99435.53;5060999;28;20079;-63
2023/05/06 09:43:43;;;;;;;4.10;1.50;;;;;;;22.34;47.97;99440.81;5057335;28;20052;-63
2023/05/06 09:46:11;;;;;;;3.08;1.33;;;;;;;23.06;46.27;99433.31;5061100;28;20041;-62
2023/05/06 09:48:38;;;;;;;5.43;1.40;;;;;;;21.85;47.76;99434.47;5064041;28;20530;-62
2023/05/06 09:51:06;;;;;;;2.83;1.30;;;;;;;21.39;49.66;99424.69;5062740;28;20092;-62
2023/05/06 09:53:34;;;;;;;2.63;1.30;;;;;;;21.78;48.52;99417.75;5066661;28;20036;-63
2023/05/06 09:56:03;;;;;;;3.45;1.42;;;;;;;22.33;47.49;99429.09;5063874;28;20052;-62
2023/05/06 09:58:31;;;;;;;4.47;1.57;;;;;;;22.01;47.54;99426.69;5063624;28;20083;-63
2023/05/06 10:00:58;;;;;;;3.25;1.52;;;;;;;22.00;47.08;99425.09;5066209;28;21996;-63
2023/05/06 10:03:25;;;;;;;2.75;1.42;;;;;;;19.73;52.97;99427.47;5060127;28;20049;-62
2023/05/06 10:05:53;;;;;;;4.10;1.40;;;;;;;21.40;49.65;99421.66;5066093;28;20072;-63
2023/05/06 10:08:20;;;;;;;4.00;1.60;;;;;;;20.87;50.48;99414.94;5063522;28;20145;-64
2023/05/06 10:10:47;;;;;;;3.28;1.35;;;;;;;22.65;47.04;99412.66;5064722;28;20045;-63
2023/05/06 10:13:15;;;;;;;3.05;1.13;;;;;;;22.88;45.56;99411.41;5060739;28;20056;-63
2023/05/06 10:15:42;;;;;;;3.22;1.15;;;;;;;20.47;49.71;99420.09;5056586;28;20056;-63
2023/05/06 10:18:09;;;;;;;1.80;1.20;;;;;;;21.60;48.59;99412.19;5063116;28;20044;-62
2023/05/06 10:20:36;;;;;;;3.28;1.63;;;;;;;22.25;47.34;99410.78;5068072;28;20194;-63
2023/05/06 10:23:06;;;;;;;1.60;1.10;;;;;;;22.46;47.29;99405.53;5063696;28;20043;-62
2023/05/06 10:25:35;;;;;;;2.38;1.15;;;;;;;21.01;50.02;99400.47;5055221;28;20483;-62
2023/05/06 10:28:04;;;;;;;1.13;1.00;;;;;;;21.67;48.14;99401.63;5054957;28;20049;-62
2023/05/06 10:30:32;;;;;;;1.83;1.10;;;;;;;19.70;54.38;99407.13;5064771;28;20131;-62
2023/05/06 10:32:59;;;;;;;2.20;1.30;;;;;;;20.07;54.61;99399.13;5063168;28;20397;-62
2023/05/06 10:35:30;;;;;;;2.33;1.27;;;;;;;19.54;54.27;99400.28;5064716;28;20076;-62
2023/05/06 10:37:57;;;;;;;5.65;1.40;;;;;;;19.74;53.45;99393.72;5061787;28;20066;-62
2023/05/06 10:40:24;;;;;;;2.92;1.17;;;;;;;19.73;53.09;99392.13;5065911;28;20443;-62
2023/05/06 10:42:51;;;;;;;3.47;1.20;;;;;;;19.34;54.70;99385.94;5060105;28;20063;-62
2023/05/06 10:45:18;;;;;;;3.60;1.30;;;;;;;21.01;51.77;99387.66;5065029;28;20043;-62
2023/05/06 10:48:09;;;;;;;1.88;1.15;;;;;;;21.78;49.25;99387.72;5061743;28;20406;-62
2023/05/06 10:50:36;;;;;;;3.40;1.27;;;;;;;21.71;49.39;99385.44;5058404;28;20048;-62
2023/05/06 10:53:03;;;;;;;3.15;1.40;;;;;;;21.80;50.17;99382.78;5058948;28;20058;-62
2023/05/06 10:55:31;;;;;;;2.42;1.20;;;;;;;22.02;47.45;99371.81;5059957;28;20052;-63
2023/05/06 10:58:02;;;;;;;2.00;0.93;;;;;;;23.08;45.42;99370.94;5060178;28;20060;-63
2023/05/06 11:00:31;;;;;;;1.80;1.10;;;;;;;23.30;45.37;99362.56;5062623;28;20558;-62
2023/05/06 11:02:58;;;;;;;1.83;0.98;;;;;;;22.21;45.21;99366.09;5062821;28;20434;-62
2023/05/06 11:05:27;;;;;;;3.58;1.20;;;;;;;21.66;46.68;99375.47;5061549;28;20052;-62
2023/05/06 11:08:07;;;;;;;2.65;1.10;;;;;;;21.46;48.67;99370.53;5055998;28;20406;-63
2023/05/06 11:10:35;;;;;;;2.05;1.10;;;;;;;22.59;46.35;99377.31;5062831;28;20135;-62
2023/05/06 11:13:23;;;;;;;1.48;1.10;;;;;;;22.47;45.96;99368.91;5058441;28;20106;-61
2023/05/06 11:15:50;;;;;;;3.05;0.95;;;;;;;22.63;45.98;99366.53;5059052;28;20049;-62
2023/05/06 11:18:42;;;;;;;2.00;1.10;;;;;;;20.31;50.30;99372.53;5063406;28;20163;-61
2023/05/06 11:21:42;;;;;;;2.78;1.20;;;;;;;21.06;48.22;99360.28;5061140;28;20086;-63
2023/05/06 11:24:10;;;;;;;2.67;1.30;;;;;;;21.04;48.45;99361.69;5059112;28;20665;-62
2023/05/06 11:26:37;;;;;;;3.65;1.35;;;;;;;21.71;47.17;99358.16;5053706;28;20185;-63
2023/05/06 11:29:06;;;;;;;2.25;1.02;;;;;;;21.41;45.91;99354.31;5058995;28;20064;-62
2023/05/06 11:31:38;;;;;;;1.15;0.80;;;;;;;21.46;47.67;99360.44;5060857;28;20491;-61
2023/05/06 11:34:09;;;;;;;1.55;1.00;;;;;;;21.80;47.07;99360.94;5059464;28;20069;-62
2023/05/06 11:36:37;;;;;;;2.95;1.30;;;;;;;21.98;46.88;99359.91;5058315;28;20502;-63